Аэропорт: Кадала. Чита

ICAO: UIAA

METAR:
2019-09-21 16:00:00
UIAA 211600Z AUTO 27001MPS 9999 NCD 05/03 Q1019 RMK QFE706/0941
METAR:
2019-09-21 14:00:00
TAF UIAA 211400Z 2115/2215 22003MPS 9999 NSC TEMPO 2118/2124 3100 BR